createdAt,value
2023-05-18T00:02:16.153Z,98889.91
2023-05-18T00:04:44.324Z,98892.75
2023-05-18T00:07:13.149Z,98884.41
2023-05-18T00:09:41.356Z,98886.38
2023-05-18T00:12:09.971Z,98878.66
2023-05-18T00:14:37.901Z,98882.84
2023-05-18T00:17:05.314Z,98886.72
2023-05-18T00:19:33.367Z,98879.66
2023-05-18T00:22:02.327Z,98873.38
2023-05-18T00:24:29.900Z,98874.75
2023-05-18T00:26:56.912Z,98874.97
2023-05-18T00:29:24.457Z,98877.75
2023-05-18T00:31:51.668Z,98879.97
2023-05-18T00:34:18.732Z,98881.31
2023-05-18T00:36:46.450Z,98878.94
2023-05-18T00:39:13.434Z,98869.44
2023-05-18T00:41:40.964Z,98868.63
2023-05-18T00:44:08.444Z,98868.69
2023-05-18T00:46:36.425Z,98875.03
2023-05-18T00:49:03.662Z,98881.41
2023-05-18T00:51:33.467Z,98878.69
2023-05-18T00:54:03.766Z,98877.13
2023-05-18T00:56:34.507Z,98883.84
2023-05-18T00:59:03.553Z,98882.97
2023-05-18T01:01:34.965Z,98881.94
2023-05-18T01:04:03.325Z,98874.63
2023-05-18T01:06:36.064Z,98876.13
2023-05-18T01:09:06.921Z,98865.78
2023-05-18T01:12:18.173Z,98869.06
2023-05-18T01:15:29.559Z,98875.41
2023-05-18T01:18:16.425Z,98874.19
2023-05-18T01:21:25.593Z,98865.44
2023-05-18T01:24:06.010Z,98871.69
2023-05-18T01:26:41.472Z,98875.78
2023-05-18T01:29:11.490Z,98871.97
2023-05-18T01:31:39.946Z,98873.09
2023-05-18T01:34:07.075Z,98876.41
2023-05-18T01:36:34.129Z,98874.19
2023-05-18T01:39:02.811Z,98872.94
2023-05-18T01:41:32.519Z,98868.16
2023-05-18T01:44:01.926Z,98871.94
2023-05-18T01:46:51.464Z,98866.78
2023-05-18T01:49:36.099Z,98870.53
2023-05-18T01:52:11.657Z,98865.97
2023-05-18T01:54:43.680Z,98871.16
2023-05-18T01:57:11.542Z,98862.69
2023-05-18T01:59:39.462Z,98869.41
2023-05-18T02:02:06.691Z,98864.81
2023-05-18T02:04:36.548Z,98866.91
2023-05-18T02:07:04.774Z,98865.19
2023-05-18T02:09:32.266Z,98864.81
2023-05-18T02:11:59.947Z,98867.38
2023-05-18T02:14:27.114Z,98866.66
2023-05-18T02:16:54.567Z,98859.88
2023-05-18T02:19:22.970Z,98864.13
2023-05-18T02:21:50.156Z,98858.16
2023-05-18T02:24:20.387Z,98854.31
2023-05-18T02:26:47.838Z,98853.91
2023-05-18T02:29:15.265Z,98857.34
2023-05-18T02:31:42.822Z,98856.72
2023-05-18T02:34:10.514Z,98848.72
2023-05-18T02:36:39.807Z,98858.97
2023-05-18T02:39:07.836Z,98860.22
2023-05-18T02:41:36.252Z,98849.47
2023-05-18T02:44:06.429Z,98854.72
2023-05-18T02:46:33.864Z,98850.75
2023-05-18T02:49:01.564Z,98846.75
2023-05-18T02:51:29.972Z,98842.63
2023-05-18T02:53:57.703Z,98836.69
2023-05-18T02:56:25.043Z,98840.47
2023-05-18T02:59:02.338Z,98840.22
2023-05-18T03:01:34.899Z,98842.75
2023-05-18T03:04:03.042Z,98839.66
2023-05-18T03:06:31.424Z,98833.78
2023-05-18T03:08:59.202Z,98837.81
2023-05-18T03:11:34.185Z,98836.09
2023-05-18T03:14:01.628Z,98843.59
2023-05-18T03:16:29.575Z,98838.53
2023-05-18T03:19:02.285Z,98843.03
2023-05-18T03:21:36.064Z,98837.72
2023-05-18T03:24:04.102Z,98829.44
2023-05-18T03:26:32.707Z,98844.72
2023-05-18T03:29:01.610Z,98833.22
2023-05-18T03:31:29.166Z,98835.47
2023-05-18T03:33:58.447Z,98832.25
2023-05-18T03:36:28.262Z,98842.28
2023-05-18T03:38:55.519Z,98846.28
2023-05-18T03:41:23.134Z,98842.31
2023-05-18T03:43:51.247Z,98846.19
2023-05-18T03:46:18.750Z,98844.81
2023-05-18T03:48:46.262Z,98843.19
2023-05-18T03:51:16.335Z,98837.34
2023-05-18T03:53:43.554Z,98841.75
2023-05-18T03:56:13.714Z,98850.09
2023-05-18T03:58:42.469Z,98839.72
2023-05-18T04:01:10.037Z,98848.16
2023-05-18T04:03:37.710Z,98845.59
2023-05-18T04:06:06.423Z,98846.78
2023-05-18T04:08:34.404Z,98846.09
2023-05-18T04:11:01.657Z,98846.06
2023-05-18T04:13:29.161Z,98853.34
2023-05-18T04:15:59.153Z,98847.78
2023-05-18T04:18:30.225Z,98859.59
2023-05-18T04:20:57.405Z,98860.34
2023-05-18T04:23:24.642Z,98858.41
2023-05-18T04:25:52.233Z,98860.78
2023-05-18T04:28:19.386Z,98865.38
2023-05-18T04:30:47.923Z,98864.19
2023-05-18T04:33:16.441Z,98867.75
2023-05-18T04:35:45.431Z,98868.84
2023-05-18T04:38:13.563Z,98872.44
2023-05-18T04:40:42.962Z,98874.19
2023-05-18T04:43:12.537Z,98876.09
2023-05-18T04:45:39.711Z,98879.69
2023-05-18T04:48:06.882Z,98881.91
2023-05-18T04:50:35.915Z,98876.38
2023-05-18T04:53:07.914Z,98873.41
2023-05-18T04:55:35.940Z,98878.56
2023-05-18T04:58:10.375Z,98881.88
2023-05-18T05:00:38.007Z,98884.97
2023-05-18T05:03:05.745Z,98882.19
2023-05-18T05:05:34.152Z,98888.28
2023-05-18T05:08:01.596Z,98881.38
2023-05-18T05:10:30.974Z,98879.28
2023-05-18T05:12:58.116Z,98888.56
2023-05-18T05:15:25.294Z,98874.72
2023-05-18T05:17:52.746Z,98878.84
2023-05-18T05:20:20.440Z,98882.88
2023-05-18T05:22:47.819Z,98872.03
2023-05-18T05:25:21.744Z,98876.13
2023-05-18T05:27:51.628Z,98877.19
2023-05-18T05:30:21.053Z,98873.59
2023-05-18T05:32:57.874Z,98872.13
2023-05-18T05:35:51.671Z,98880.03
2023-05-18T05:38:18.906Z,98880.66
2023-05-18T05:40:46.518Z,98884.53
2023-05-18T05:43:14.061Z,98877.56
2023-05-18T05:45:43.680Z,98880.25
2023-05-18T05:48:13.666Z,98890.72
2023-05-18T05:50:41.893Z,98893.16
2023-05-18T05:53:12.238Z,98895.91
2023-05-18T05:55:42.006Z,98884.28
2023-05-18T05:58:13.704Z,98887.16
2023-05-18T06:00:46.193Z,98879.44
2023-05-18T06:03:21.380Z,98880.09
2023-05-18T06:05:49.685Z,98883.34
2023-05-18T06:08:19.657Z,98885.91
2023-05-18T06:10:50.888Z,98879.78
2023-05-18T06:13:20.858Z,98886.13
2023-05-18T06:16:15.851Z,98884.72
2023-05-18T06:18:51.224Z,98883.88
2023-05-18T06:21:21.958Z,98887.16
2023-05-18T06:23:49.719Z,98886.81
2023-05-18T06:26:39.940Z,98887.09
2023-05-18T06:29:26.166Z,98886.19
2023-05-18T06:32:08.797Z,98893.78
2023-05-18T06:34:40.431Z,98897.13
2023-05-18T06:37:08.054Z,98887.81
2023-05-18T06:39:35.272Z,98893.69
2023-05-18T06:42:02.820Z,98887.81
2023-05-18T06:44:35.317Z,98887.56
2023-05-18T06:47:08.069Z,98881.44
2023-05-18T06:49:35.761Z,98881.13
2023-05-18T06:52:04.046Z,98896.28
2023-05-18T06:54:39.050Z,98883.13
2023-05-18T06:57:07.235Z,98884.22
2023-05-18T06:59:40.805Z,98879.66
2023-05-18T07:02:08.456Z,98883.13
2023-05-18T07:04:36.016Z,98878.00
2023-05-18T07:07:03.052Z,98883.81
2023-05-18T07:09:30.158Z,98882.75
2023-05-18T07:11:57.231Z,98885.16
2023-05-18T07:14:24.407Z,98888.81
2023-05-18T07:16:51.539Z,98890.50
2023-05-18T07:19:19.162Z,98886.69
2023-05-18T07:21:46.347Z,98884.72
2023-05-18T07:24:16.109Z,98884.03
2023-05-18T07:26:43.798Z,98884.03
2023-05-18T07:29:13.281Z,98872.94
2023-05-18T07:31:41.359Z,98880.25
2023-05-18T07:34:15.264Z,98878.75
2023-05-18T07:36:44.831Z,98874.72
2023-05-18T07:39:19.439Z,98886.56
2023-05-18T07:41:50.083Z,98878.72
2023-05-18T07:44:20.970Z,98886.00
2023-05-18T07:46:48.239Z,98868.28
2023-05-18T07:49:15.875Z,98877.03
2023-05-18T07:51:47.521Z,98879.53
2023-05-18T07:54:15.058Z,98875.91
2023-05-18T07:56:45.477Z,98867.75
2023-05-18T07:59:12.674Z,98862.16
2023-05-18T08:01:41.553Z,98860.72
2023-05-18T08:04:09.354Z,98868.84
2023-05-18T08:06:37.774Z,98862.34
2023-05-18T08:09:08.559Z,98863.13
2023-05-18T08:11:38.144Z,98863.75
2023-05-18T08:14:08.329Z,98863.09
2023-05-18T08:16:37.824Z,98851.34
2023-05-18T08:19:04.964Z,98851.19
2023-05-18T08:21:33.362Z,98849.84
2023-05-18T08:24:18.865Z,98855.53
2023-05-18T08:26:46.284Z,98853.50
2023-05-18T08:29:13.973Z,98845.69
2023-05-18T08:31:42.381Z,98848.59
2023-05-18T08:34:09.553Z,98853.16
2023-05-18T08:36:37.412Z,98838.69
2023-05-18T08:39:05.572Z,98847.22
2023-05-18T08:41:55.918Z,98848.56
2023-05-18T08:44:48.218Z,98847.84
2023-05-18T08:47:16.458Z,98834.00
2023-05-18T08:49:44.222Z,98830.13
2023-05-18T08:52:18.179Z,98820.19
2023-05-18T08:54:45.884Z,98821.38
2023-05-18T08:57:14.196Z,98816.53
2023-05-18T08:59:42.788Z,98813.34
2023-05-18T09:02:10.927Z,98816.72
2023-05-18T09:04:39.125Z,98811.38
2023-05-18T09:07:10.006Z,98811.31
2023-05-18T09:09:38.492Z,98818.53
2023-05-18T09:12:07.177Z,98822.03
2023-05-18T09:14:34.624Z,98821.06
2023-05-18T09:17:02.346Z,98833.44
2023-05-18T09:19:29.526Z,98822.03
2023-05-18T09:21:57.138Z,98820.03
2023-05-18T09:24:25.014Z,98825.38
2023-05-18T09:26:53.073Z,98805.44
2023-05-18T09:29:22.557Z,98812.41
2023-05-18T09:31:50.305Z,98808.31
2023-05-18T09:34:21.259Z,98820.84
2023-05-18T09:36:53.117Z,98826.50
2023-05-18T09:39:20.954Z,98825.75
2023-05-18T09:41:59.035Z,98817.44
2023-05-18T09:44:35.622Z,98816.44
2023-05-18T09:47:06.694Z,98811.19
2023-05-18T09:49:33.905Z,98801.97
2023-05-18T09:52:01.800Z,98816.91
2023-05-18T09:54:29.402Z,98811.16
2023-05-18T09:57:09.667Z,98812.88
2023-05-18T09:59:38.795Z,98811.72
2023-05-18T10:02:09.085Z,98807.34
2023-05-18T10:04:40.555Z,98803.56
2023-05-18T10:07:14.840Z,98801.88
2023-05-18T10:09:44.505Z,98804.22
2023-05-18T10:12:18.696Z,98797.97
2023-05-18T10:14:46.753Z,98788.75
2023-05-18T10:17:17.094Z,98799.66
2023-05-18T10:19:46.757Z,98785.97
2023-05-18T10:22:18.082Z,98784.72
2023-05-18T10:24:51.489Z,98784.59
2023-05-18T10:27:25.537Z,98787.78
2023-05-18T10:29:54.725Z,98785.91
2023-05-18T10:32:25.416Z,98785.34
2023-05-18T10:34:54.293Z,98772.63
2023-05-18T10:37:24.318Z,98782.34
2023-05-18T10:39:54.884Z,98778.38
2023-05-18T10:42:23.777Z,98771.13
2023-05-18T10:44:53.012Z,98772.28
2023-05-18T10:47:21.950Z,98788.00
2023-05-18T10:49:50.127Z,98781.28
2023-05-18T10:52:17.930Z,98766.63
2023-05-18T10:54:45.935Z,98773.06
2023-05-18T10:57:18.320Z,98778.06
2023-05-18T10:59:48.398Z,98770.22
2023-05-18T11:02:18.987Z,98768.50
2023-05-18T11:04:47.983Z,98771.78
2023-05-18T11:07:16.097Z,98764.13
2023-05-18T11:09:44.965Z,98764.38
2023-05-18T11:12:17.948Z,98760.53
2023-05-18T11:14:52.566Z,98758.84
2023-05-18T11:17:25.897Z,98775.69
2023-05-18T11:20:08.228Z,98756.09
2023-05-18T11:22:53.335Z,98759.06
2023-05-18T11:25:32.893Z,98757.38
2023-05-18T11:28:03.387Z,98743.97
2023-05-18T11:30:51.623Z,98748.78
2023-05-18T11:33:32.616Z,98747.59
2023-05-18T11:36:09.621Z,98742.78
2023-05-18T11:39:04.774Z,98739.94
2023-05-18T11:41:41.975Z,98754.75
2023-05-18T11:44:12.434Z,98742.47
2023-05-18T11:47:03.673Z,98754.75
2023-05-18T11:49:45.931Z,98757.59
2023-05-18T11:52:19.981Z,98745.06
2023-05-18T11:54:53.727Z,98740.81
2023-05-18T11:57:34.654Z,98735.66
2023-05-18T12:00:09.770Z,98732.25
2023-05-18T12:02:45.889Z,98747.00
2023-05-18T12:05:14.520Z,98740.81
2023-05-18T12:07:42.693Z,98722.41
2023-05-18T12:10:14.993Z,98742.53
2023-05-18T12:12:42.958Z,98730.28
2023-05-18T12:15:12.036Z,98725.75
2023-05-18T12:17:42.646Z,98730.88
2023-05-18T12:20:13.782Z,98723.56
2023-05-18T12:22:43.713Z,98723.50
2023-05-18T12:25:11.520Z,98735.09
2023-05-18T12:27:46.226Z,98717.47
2023-05-18T12:30:27.115Z,98718.94
2023-05-18T12:32:58.107Z,98718.72
2023-05-18T12:35:27.184Z,98718.03
2023-05-18T12:37:56.255Z,98718.63
2023-05-18T12:40:23.728Z,98722.78
2023-05-18T12:42:55.506Z,98717.56
2023-05-18T12:45:33.685Z,98707.75
2023-05-18T12:48:09.346Z,98713.34
2023-05-18T12:50:38.882Z,98716.22
2023-05-18T12:53:06.525Z,98706.88
2023-05-18T12:55:34.743Z,98709.28
2023-05-18T12:58:07.416Z,98711.41
2023-05-18T13:00:36.427Z,98707.19
2023-05-18T13:03:15.200Z,98704.69
2023-05-18T13:05:45.562Z,98705.00
2023-05-18T13:08:19.929Z,98715.44
2023-05-18T13:10:52.945Z,98716.63
2023-05-18T13:13:25.328Z,98696.44
2023-05-18T13:15:52.765Z,98711.09
2023-05-18T13:18:19.818Z,98701.44
2023-05-18T13:20:55.029Z,98699.13
2023-05-18T13:23:26.701Z,98697.72
2023-05-18T13:25:55.505Z,98700.13
2023-05-18T13:28:24.521Z,98698.50
2023-05-18T13:30:51.585Z,98699.19
2023-05-18T13:33:19.278Z,98701.22
2023-05-18T13:35:48.646Z,98705.13
2023-05-18T13:38:16.531Z,98697.03
2023-05-18T13:40:44.390Z,98684.31
2023-05-18T13:43:13.785Z,98692.19
2023-05-18T13:45:42.089Z,98685.56
2023-05-18T13:48:10.929Z,98680.31
2023-05-18T13:50:40.155Z,98680.22
2023-05-18T13:53:07.336Z,98679.69
2023-05-18T13:55:35.461Z,98684.38
2023-05-18T13:58:02.947Z,98678.47
2023-05-18T14:00:33.572Z,98667.03
2023-05-18T14:03:01.896Z,98660.66
2023-05-18T14:05:29.258Z,98670.28
2023-05-18T14:07:56.872Z,98662.44
2023-05-18T14:10:23.997Z,98654.91
2023-05-18T14:12:52.289Z,98661.09
2023-05-18T14:15:19.592Z,98660.69
2023-05-18T14:17:46.940Z,98671.66
2023-05-18T14:20:14.464Z,98667.47
2023-05-18T14:22:41.965Z,98661.06
2023-05-18T14:25:09.836Z,98663.19
2023-05-18T14:27:36.953Z,98668.63
2023-05-18T14:30:06.382Z,98665.34
2023-05-18T14:32:33.607Z,98658.53
2023-05-18T14:35:00.814Z,98659.41
2023-05-18T14:37:27.988Z,98660.63
2023-05-18T14:39:55.230Z,98647.66
2023-05-18T14:42:22.825Z,98655.19
2023-05-18T14:44:49.962Z,98643.66
2023-05-18T14:47:18.010Z,98651.25
2023-05-18T14:49:45.123Z,98645.09
2023-05-18T14:52:12.509Z,98660.91
2023-05-18T14:54:40.507Z,98650.44
2023-05-18T14:57:07.582Z,98644.56
2023-05-18T14:59:34.617Z,98650.66
2023-05-18T15:02:02.127Z,98653.63
2023-05-18T15:04:29.262Z,98638.56
2023-05-18T15:06:57.210Z,98642.41
2023-05-18T15:09:26.722Z,98648.19
2023-05-18T15:11:54.083Z,98654.72
2023-05-18T15:14:21.318Z,98652.47
2023-05-18T15:16:48.438Z,98646.69
2023-05-18T15:19:18.243Z,98655.44
2023-05-18T15:21:45.418Z,98648.50
2023-05-18T15:24:12.440Z,98643.88
2023-05-18T15:26:40.088Z,98639.34
2023-05-18T15:29:07.179Z,98634.78
2023-05-18T15:31:36.859Z,98644.97
2023-05-18T15:34:04.104Z,98643.84
2023-05-18T15:36:32.473Z,98646.00
2023-05-18T15:39:00.158Z,98641.66
2023-05-18T15:41:33.031Z,98640.00
2023-05-18T15:44:01.891Z,98634.28
2023-05-18T15:46:35.684Z,98635.13
2023-05-18T15:49:04.118Z,98641.09
2023-05-18T15:51:31.809Z,98646.84
2023-05-18T15:53:58.937Z,98638.78
2023-05-18T15:56:26.271Z,98641.06
2023-05-18T15:58:53.774Z,98645.06
2023-05-18T16:01:20.960Z,98637.81
2023-05-18T16:03:48.145Z,98645.66
2023-05-18T16:06:15.288Z,98643.03
2023-05-18T16:08:42.406Z,98633.69
2023-05-18T16:11:09.856Z,98638.91
2023-05-18T16:13:37.011Z,98635.34
2023-05-18T16:16:04.793Z,98634.72
2023-05-18T16:18:31.839Z,98647.44
2023-05-18T16:20:58.999Z,98637.47
2023-05-18T16:23:26.066Z,98634.63
2023-05-18T16:25:53.187Z,98630.69
2023-05-18T16:28:20.243Z,98638.84
2023-05-18T16:30:47.760Z,98630.69
2023-05-18T16:33:16.930Z,98635.22
2023-05-18T16:35:44.061Z,98627.88
2023-05-18T16:38:13.341Z,98624.44
2023-05-18T16:40:40.853Z,98625.31
2023-05-18T16:43:07.943Z,98634.94
2023-05-18T16:45:35.618Z,98639.91
2023-05-18T16:48:03.860Z,98644.03
2023-05-18T16:50:31.819Z,98637.94
2023-05-18T16:52:59.257Z,98649.78
2023-05-18T16:55:26.669Z,98655.97
2023-05-18T16:57:53.814Z,98640.81
2023-05-18T17:00:22.040Z,98648.69
2023-05-18T17:02:49.472Z,98651.47
2023-05-18T17:05:17.464Z,98649.97
2023-05-18T17:07:45.028Z,98655.56
2023-05-18T17:10:12.482Z,98651.63
2023-05-18T17:12:39.809Z,98651.97
2023-05-18T17:15:07.988Z,98646.88
2023-05-18T17:17:35.039Z,98654.13
2023-05-18T17:20:02.445Z,98657.16
2023-05-18T17:22:29.558Z,98655.03
2023-05-18T17:24:56.636Z,98651.78
2023-05-18T17:27:24.035Z,98657.13
2023-05-18T17:29:51.087Z,98654.69
2023-05-18T17:32:18.141Z,98652.91
2023-05-18T17:34:45.188Z,98660.47
2023-05-18T17:37:13.366Z,98655.81
2023-05-18T17:39:40.455Z,98657.41
2023-05-18T17:42:07.636Z,98658.13
2023-05-18T17:44:35.149Z,98657.97
2023-05-18T17:47:03.310Z,98661.00
2023-05-18T17:49:32.476Z,98661.28
2023-05-18T17:51:59.538Z,98661.94
2023-05-18T17:54:27.040Z,98663.75
2023-05-18T17:56:56.606Z,98667.63
2023-05-18T17:59:23.682Z,98667.06
2023-05-18T18:01:50.960Z,98670.19
2023-05-18T18:04:18.345Z,98667.66
2023-05-18T18:06:45.692Z,98675.63
2023-05-18T18:09:13.041Z,98665.19
2023-05-18T18:11:40.109Z,98669.13
2023-05-18T18:14:07.225Z,98665.88
2023-05-18T18:16:34.956Z,98670.84
2023-05-18T18:19:02.843Z,98669.50
2023-05-18T18:21:29.965Z,98665.69
2023-05-18T18:23:57.424Z,98670.41
2023-05-18T18:26:24.646Z,98674.00
2023-05-18T18:28:52.422Z,98670.84
2023-05-18T18:31:20.828Z,98671.25
2023-05-18T18:33:50.346Z,98669.34
2023-05-18T18:36:17.816Z,98675.00
2023-05-18T18:38:44.978Z,98675.38
2023-05-18T18:41:13.032Z,98681.03
2023-05-18T18:43:40.571Z,98681.94
2023-05-18T18:46:07.735Z,98680.38
2023-05-18T18:48:34.914Z,98684.94
2023-05-18T18:51:01.945Z,98685.13
2023-05-18T18:53:28.993Z,98691.97
2023-05-18T18:55:57.249Z,98688.84
2023-05-18T18:58:24.434Z,98690.75
2023-05-18T19:00:51.534Z,98702.75
2023-05-18T19:03:19.052Z,98702.84
2023-05-18T19:05:46.814Z,98717.19
2023-05-18T19:08:14.263Z,98714.81
2023-05-18T19:10:41.688Z,98720.44
2023-05-18T19:13:08.746Z,98717.44
2023-05-18T19:15:36.699Z,98715.97
2023-05-18T19:18:04.318Z,98720.97
2023-05-18T19:20:31.824Z,98719.34
2023-05-18T19:22:58.991Z,98720.66
2023-05-18T19:25:26.485Z,98721.81
2023-05-18T19:27:54.339Z,98726.50
2023-05-18T19:30:22.805Z,98733.28
2023-05-18T19:32:52.538Z,98734.94
2023-05-18T19:35:26.248Z,98743.81
2023-05-18T19:37:53.408Z,98738.00
2023-05-18T19:40:22.849Z,98743.69
2023-05-18T19:42:50.767Z,98736.53
2023-05-18T19:45:17.881Z,98738.75
2023-05-18T19:47:45.133Z,98740.09
2023-05-18T19:50:12.512Z,98741.13
2023-05-18T19:52:39.622Z,98751.22
2023-05-18T19:55:07.353Z,98747.56
2023-05-18T19:57:34.618Z,98751.06
2023-05-18T20:00:02.461Z,98747.25
2023-05-18T20:02:39.474Z,98763.47
2023-05-18T20:05:08.089Z,98751.06
2023-05-18T20:07:35.233Z,98763.56
2023-05-18T20:10:02.322Z,98759.94
2023-05-18T20:12:29.384Z,98759.94
2023-05-18T20:14:56.645Z,98758.25
2023-05-18T20:17:24.854Z,98760.41
2023-05-18T20:19:52.126Z,98762.03
2023-05-18T20:22:19.994Z,98760.22
2023-05-18T20:24:47.260Z,98756.19
2023-05-18T20:27:15.039Z,98758.66
2023-05-18T20:29:42.312Z,98757.41
2023-05-18T20:32:09.552Z,98763.69
2023-05-18T20:34:36.777Z,98766.09
2023-05-18T20:37:04.391Z,98772.75
2023-05-18T20:39:32.118Z,98768.16
2023-05-18T20:41:59.544Z,98770.91
2023-05-18T20:44:28.863Z,98766.69
2023-05-18T20:46:56.020Z,98767.38
2023-05-18T20:49:24.997Z,98763.66
2023-05-18T20:51:52.142Z,98766.56
2023-05-18T20:54:21.223Z,98767.94
2023-05-18T20:56:50.775Z,98757.06
2023-05-18T20:59:18.327Z,98756.94
2023-05-18T21:01:45.554Z,98752.69
2023-05-18T21:04:13.331Z,98756.47
2023-05-18T21:06:41.237Z,98753.03
2023-05-18T21:09:08.640Z,98755.72
2023-05-18T21:11:35.923Z,98766.06
2023-05-18T21:14:03.300Z,98762.56
2023-05-18T21:16:30.743Z,98755.19
2023-05-18T21:18:57.931Z,98751.34
2023-05-18T21:21:25.428Z,98749.50
2023-05-18T21:23:53.101Z,98763.53
2023-05-18T21:26:20.687Z,98762.09
2023-05-18T21:28:48.165Z,98754.72
2023-05-18T21:31:15.302Z,98757.78
2023-05-18T21:33:43.203Z,98755.84
2023-05-18T21:36:10.724Z,98759.97
2023-05-18T21:38:40.464Z,98761.78
2023-05-18T21:41:07.457Z,98764.53
2023-05-18T21:43:34.529Z,98766.63
2023-05-18T21:46:01.583Z,98762.91
2023-05-18T21:48:28.631Z,98765.59
2023-05-18T21:50:55.684Z,98767.03
2023-05-18T21:53:23.101Z,98765.22
2023-05-18T21:55:50.217Z,98766.06
2023-05-18T21:58:17.548Z,98762.09
2023-05-18T22:00:44.718Z,98763.72
2023-05-18T22:03:11.795Z,98766.75
2023-05-18T22:05:38.883Z,98767.16
2023-05-18T22:08:06.088Z,98773.88
2023-05-18T22:10:33.922Z,98771.16
2023-05-18T22:13:01.214Z,98764.41
2023-05-18T22:15:28.438Z,98774.19
2023-05-18T22:17:55.724Z,98770.50
2023-05-18T22:20:24.042Z,98767.06
2023-05-18T22:22:51.593Z,98770.63
2023-05-18T22:25:18.870Z,98768.78
2023-05-18T22:27:46.591Z,98769.47
2023-05-18T22:30:14.191Z,98762.94
2023-05-18T22:32:41.376Z,98772.91
2023-05-18T22:35:09.592Z,98765.25
2023-05-18T22:37:36.899Z,98759.75
2023-05-18T22:40:06.320Z,98758.84
2023-05-18T22:42:33.792Z,98750.53
2023-05-18T22:45:00.972Z,98748.19
2023-05-18T22:47:28.416Z,98746.66
2023-05-18T22:49:55.942Z,98749.72
2023-05-18T22:52:23.014Z,98752.19
2023-05-18T22:54:50.590Z,98745.53
2023-05-18T22:57:17.670Z,98747.50
2023-05-18T22:59:44.749Z,98739.91
2023-05-18T23:02:12.293Z,98745.75
2023-05-18T23:04:39.484Z,98736.41
2023-05-18T23:07:08.428Z,98741.63
2023-05-18T23:09:38.412Z,98756.09
2023-05-18T23:12:07.074Z,98751.09
2023-05-18T23:14:34.113Z,98743.63
2023-05-18T23:17:01.217Z,98743.88
2023-05-18T23:19:28.521Z,98741.66
2023-05-18T23:21:56.603Z,98742.84
2023-05-18T23:24:23.683Z,98740.00
2023-05-18T23:26:50.903Z,98739.56
2023-05-18T23:29:18.299Z,98743.13
2023-05-18T23:31:45.496Z,98748.94
2023-05-18T23:34:12.949Z,98748.69
2023-05-18T23:36:42.951Z,98739.16
2023-05-18T23:39:10.423Z,98748.94
2023-05-18T23:41:38.438Z,98743.44
2023-05-18T23:44:06.524Z,98737.28
2023-05-18T23:46:34.911Z,98741.63
2023-05-18T23:49:02.558Z,98731.94
2023-05-18T23:51:35.897Z,98734.63
2023-05-18T23:54:07.572Z,98734.75
2023-05-18T23:56:35.384Z,98734.88
2023-05-18T23:59:02.790Z,98747.50
